Latest Weather Observations for Lameroo AWS

IDS60801

Issued at 7:31 pm CST Sunday 28 May 2017 (issued every 30 minutes, with the page automatically refreshed every 10 minutes)

About weather observations | Map of weather stations | Latest weather observations for SA | Other Formats
Station Details ID: 025562 Name: AUSTIN PLAINS Lat: -35.38 Lon: 140.54 Height: 110.08 m
Data from the previous 72 hours. | See also: Recent months at Lameroo AWS
Date/Time
CST
Temp
°C
App
Temp
°C
Dew
Point
°C
Rel
Hum
%
Delta-T
°C
Wind Press
QNH
hPa
Press
MSL
hPa
Rain since
9am
mm
Dir  Spd
km/h
Gust
km/h
Spd
kts
Gust
kts
28/07:30pm 8.0 5.0 6.1 88 0.9 W 11 13 6 7 1017.2 1017.2 3.0
28/07:00pm 8.3 5.3 5.9 85 1.1 W 11 11 6 6 1016.7 1016.7 3.0
28/06:30pm 8.9 5.4 5.6 80 1.5 WSW 13 17 7 9 1016.4 1016.4 3.0
28/06:00pm 9.9 6.2 6.4 79 1.6 WSW 15 20 8 11 1016.0 1016.0 3.0
28/05:30pm 9.4 5.7 6.1 80 1.5 WSW 15 17 8 9 1015.4 1015.4 3.0
28/05:00pm 9.9 5.7 5.9 76 1.9 WSW 17 22 9 12 1014.9 1014.9 3.0
28/04:30pm 11.6 5.8 6.3 70 2.5 SW 26 37 14 20 1014.5 1014.4 3.0
28/04:00pm 11.9 7.2 7.6 75 2.1 WSW 22 32 12 17 1014.0 1013.9 3.0
28/03:30pm 11.7 7.7 8.4 80 1.6 W 19 24 10 13 1013.8 1013.7 3.0
28/03:00pm 11.1 6.0 7.8 80 1.6 WSW 24 32 13 17 1013.5 1013.5 3.0
28/02:30pm 11.2 5.0 7.7 79 1.7 SW 30 39 16 21 1013.3 1013.3 3.0
28/02:00pm 11.0 4.6 9.4 90 0.8 WSW 33 43 18 23 1013.2 1013.2 3.0
28/01:30pm 11.0 7.1 9.6 91 0.7 W 20 32 11 17 1012.9 1012.9 2.4
28/01:00pm 9.8 - - - - W 20 24 11 13 1013.2 1013.2 2.4
28/12:30pm 10.1 3.7 8.4 89 0.8 SW 32 50 17 27 1013.0 1013.0 0.6
28/12:20pm 12.1 5.4 8.0 76 2.0 WSW 33 52 18 28 1012.9 1012.9 0.0
28/12:00pm 12.8 6.9 8.9 77 2.0 W 30 39 16 21 1012.7 1012.7 0.0
28/11:30am 12.1 5.6 8.2 77 1.9 W 32 41 17 22 1013.1 1013.1 0.0
28/11:00am 12.6 5.6 8.5 76 2.0 W 35 44 19 24 1013.3 1013.3 0.0
28/10:30am 12.4 6.5 8.9 79 1.8 W 30 39 16 21 1013.5 1013.5 0.0
28/10:00am 11.6 5.1 8.3 80 1.6 W 32 43 17 23 1013.4 1013.4 0.0
28/09:30am 10.3 4.0 7.5 83 1.3 W 30 41 16 22 1013.2 1013.2 0.0
28/09:13am 10.7 4.4 7.6 81 1.5 WNW 30 50 16 27 1013.1 1013.1 0.0
28/09:00am 10.1 5.0 7.5 84 1.2 WNW 24 30 13 16 1012.8 1012.8 10.6
28/08:30am 9.0 4.5 7.0 87 0.9 WNW 20 26 11 14 1012.6 1012.6 10.6
28/08:00am 8.0 3.4 6.3 89 0.8 WNW 20 24 11 13 1012.6 1012.6 10.6
28/07:30am 7.5 3.0 6.1 91 0.6 WNW 19 22 10 12 1012.4 1012.4 10.6
28/07:00am 7.1 2.9 5.7 91 0.6 NW 17 22 9 12 1012.2 1012.2 10.4
28/06:30am 7.4 2.7 5.9 90 0.7 WNW 20 26 11 14 1011.9 1011.9 10.4
28/06:00am 7.4 2.7 6.2 92 0.5 WNW 20 26 11 14 1011.6 1011.6 10.4
28/05:30am 7.6 3.2 6.5 93 0.5 WNW 19 24 10 13 1011.6 1011.6 10.4
28/05:00am 7.7 4.0 6.3 91 0.6 WNW 15 19 8 10 1011.5 1011.5 10.4
28/04:30am 8.1 4.1 6.6 90 0.7 WNW 17 22 9 12 1011.5 1011.5 10.4
28/04:00am 8.5 4.0 7.0 90 0.7 W 20 28 11 15 1011.4 1011.4 10.4
28/03:30am 8.2 4.5 7.8 97 0.2 WNW 17 20 9 11 1011.3 1011.3 10.4
28/03:00am 8.6 - - - - WNW 15 19 8 10 1011.4 1011.4 10.4
28/02:30am 8.8 5.7 8.8 100 0.0 W 15 19 8 10 1011.5 1011.5 10.4
28/02:00am 9.4 5.7 9.4 100 0.0 WNW 19 24 10 13 1011.8 1011.8 10.4
28/01:30am 10.0 - - - - W 20 30 11 16 1011.9 1011.9 10.4
28/01:00am 9.9 - - - - WNW 17 22 9 12 1011.6 1011.6 10.4
28/12:30am 10.4 - - - - W 20 24 11 13 1011.8 1011.8 10.4
28/12:00am 10.5 5.5 9.6 94 0.5 W 26 33 14 18 1011.8 1011.8 10.4
 
Date/Time
CST
Temp
°C
App
Temp
°C
Dew
Point
°C
Rel
Hum
%
Delta-T
°C
Wind Press
QNH
hPa
Press
MSL
hPa
Rain since
9am
mm
Dir  Spd
km/h
Gust
km/h
Spd
kts
Gust
kts
27/11:54pm 10.5 5.1 9.6 94 0.5 WNW 28 41 15 22 1011.7 1011.7 10.4
27/11:30pm 10.0 - - - - WNW 19 22 10 12 1011.5 1011.5 10.2
27/11:00pm 10.1 - - - - NW 11 13 6 7 1011.2 1011.2 10.2
27/10:30pm 10.5 - - - - NW 15 19 8 10 1011.7 1011.7 10.2
27/10:00pm 10.9 - - - - WNW 9 9 5 5 1011.3 1011.3 10.2
27/09:30pm 11.2 - - - - W 13 17 7 9 1012.0 1012.0 10.2
27/09:00pm 11.6 8.9 11.6 100 0.0 WSW 17 24 9 13 1012.3 1012.3 10.0
27/08:30pm 11.7 7.9 9.9 89 0.9 W 20 32 11 17 1012.1 1012.1 9.4
27/08:00pm 12.6 7.1 10.7 88 1.0 WNW 30 56 16 30 1011.7 1011.7 8.0
27/07:55pm 12.6 6.6 10.7 88 1.0 NW 33 56 18 30 1011.3 1011.3 7.4
27/07:38pm 12.6 7.7 11.2 91 0.7 WNW 28 41 15 22 1011.5 1011.5 3.0
27/07:30pm 12.4 5.6 10.8 90 0.8 W 37 54 20 29 1011.0 1011.0 2.6
27/07:20pm 14.9 9.4 9.1 68 3.0 WNW 28 52 15 28 1010.3 1010.3 0.2
27/07:00pm 14.4 10.3 7.7 64 3.3 WNW 19 22 10 12 1009.4 1009.4 0.2
27/06:30pm 15.8 9.1 7.3 57 4.2 WNW 32 46 17 25 1009.3 1009.3 0.2
27/06:23pm 16.5 10.9 7.2 54 4.6 WNW 26 43 14 23 1009.6 1009.6 0.2
27/06:00pm 14.4 11.3 7.2 62 3.6 NW 13 15 7 8 1009.7 1009.7 0.2
27/05:30pm 14.2 10.8 7.5 64 3.3 NW 15 17 8 9 1009.6 1009.6 0.2
27/05:00pm 16.0 14.0 8.7 62 3.7 NNW 9 13 5 7 1009.4 1009.4 0.2
27/04:30pm 17.1 14.0 9.0 59 4.2 N 15 19 8 10 1009.4 1009.4 0.2
27/04:00pm 17.9 13.8 8.5 54 4.9 N 20 30 11 16 1009.8 1009.8 0.2
27/03:30pm 19.5 13.8 8.2 48 5.9 NNW 28 37 15 20 1010.0 1010.0 0.2
27/03:00pm 19.2 12.7 8.2 49 5.7 NNW 32 39 17 21 1010.3 1010.3 0.2
27/02:30pm 19.3 12.5 7.7 47 6.0 NNW 33 43 18 23 1010.5 1010.5 0.2
27/02:00pm 19.5 13.0 8.2 48 5.9 N 32 43 17 23 1010.7 1010.7 0.2
27/01:30pm 19.3 13.0 8.9 51 5.5 N 32 39 17 21 1011.1 1011.1 0.2
27/01:00pm 18.1 11.7 8.7 54 4.9 N 32 41 17 22 1011.7 1011.7 0.2
27/12:30pm 16.5 11.5 9.4 63 3.7 N 26 33 14 18 1012.2 1012.2 0.2
27/12:00pm 15.2 10.9 9.3 68 3.1 N 22 32 12 17 1012.8 1012.8 0.2
27/11:30am 14.8 9.6 9.0 68 3.0 NNW 26 32 14 17 1013.5 1013.5 0.2
27/11:00am 15.3 10.5 8.8 65 3.3 NNW 24 30 13 16 1014.2 1014.1 0.0
27/10:30am 15.3 9.9 8.1 62 3.6 NNW 26 33 14 18 1014.6 1014.6 0.0
27/10:00am 14.9 8.7 7.9 63 3.5 NNW 30 37 16 20 1015.1 1015.1 0.0
27/09:30am 14.6 9.3 8.3 66 3.2 N 26 33 14 18 1015.0 1015.0 0.0
27/09:00am 12.3 8.0 7.8 74 2.2 N 20 26 11 14 1015.3 1015.3 0.0
27/08:30am 11.4 7.0 7.5 77 1.9 N 20 24 11 13 1015.5 1015.5 0.0
27/08:00am 10.4 5.9 6.9 79 1.7 NNE 20 28 11 15 1015.4 1015.4 0.0
27/07:30am 9.2 4.8 6.6 84 1.2 NNE 19 20 10 11 1015.7 1015.7 0.0
27/07:00am 8.6 4.5 6.4 86 1.0 NNE 17 19 9 10 1015.8 1015.8 0.0
27/06:30am 8.5 4.4 6.3 86 1.0 NNE 17 19 9 10 1015.7 1015.7 0.0
27/06:00am 9.5 5.1 6.6 82 1.4 N 19 22 10 12 1015.7 1015.7 0.0
27/05:30am 10.0 5.1 6.9 81 1.5 N 22 26 12 14 1015.7 1015.7 0.0
27/05:00am 9.9 5.4 6.8 81 1.5 N 20 24 11 13 1015.8 1015.8 0.0
27/04:30am 10.2 5.9 7.1 81 1.5 N 19 22 10 12 1016.0 1016.0 0.0
27/04:00am 10.2 5.8 7.3 82 1.4 N 20 26 11 14 1016.0 1016.0 0.0
27/03:30am 9.9 5.6 7.0 82 1.4 N 19 20 10 11 1016.2 1016.2 0.0
27/03:00am 10.2 5.8 7.3 82 1.4 N 20 24 11 13 1016.4 1016.4 0.0
27/02:30am 10.1 6.2 7.2 82 1.4 N 17 20 9 11 1016.5 1016.5 0.0
27/02:00am 10.2 6.3 7.3 82 1.4 N 17 20 9 11 1016.7 1016.7 0.0
27/01:30am 10.3 6.5 7.5 83 1.3 N 17 20 9 11 1017.0 1017.0 0.0
27/01:00am 10.4 6.6 7.6 83 1.4 N 17 20 9 11 1017.3 1017.3 0.0
27/12:30am 10.8 7.0 7.7 81 1.5 N 17 20 9 11 1017.5 1017.5 0.0
27/12:00am 11.4 7.3 7.9 79 1.7 N 19 24 10 13 1017.8 1017.8 0.0
 
Date/Time
CST
Temp
°C
App
Temp
°C
Dew
Point
°C
Rel
Hum
%
Delta-T
°C
Wind Press
QNH
hPa
Press
MSL
hPa
Rain since
9am
mm
Dir  Spd
km/h
Gust
km/h
Spd
kts
Gust
kts
26/11:30pm 11.8 7.8 8.3 79 1.7 N 19 22 10 12 1017.9 1017.9 0.0
26/11:00pm 11.3 7.6 8.0 80 1.6 N 17 20 9 11 1017.9 1017.9 0.0
26/10:30pm 11.3 7.6 8.0 80 1.6 N 17 20 9 11 1018.1 1018.1 0.0
26/10:00pm 11.5 7.9 8.2 80 1.6 N 17 19 9 10 1018.3 1018.3 0.0
26/09:30pm 12.0 8.4 8.5 79 1.7 N 17 20 9 11 1018.3 1018.3 0.0
26/09:00pm 12.0 8.5 8.7 80 1.6 NNE 17 19 9 10 1018.4 1018.4 0.0
26/08:30pm 12.1 9.0 8.9 81 1.6 NNE 15 17 8 9 1018.5 1018.5 0.0
26/08:00pm 11.6 8.5 9.0 84 1.3 NNE 15 17 8 9 1018.5 1018.5 0.0
26/07:30pm 11.4 8.6 8.6 83 1.4 NNE 13 13 7 7 1018.6 1018.6 0.0
26/07:00pm 11.9 9.5 8.7 81 1.6 NNE 11 13 6 7 1018.5 1018.5 0.0
26/06:30pm 11.6 8.8 8.6 82 1.5 NNE 13 13 7 7 1018.4 1018.4 0.0
26/06:00pm 13.3 11.5 9.4 77 2.0 NNE 9 11 5 6 1018.2 1018.2 0.0
26/05:30pm 15.1 14.0 9.9 71 2.7 NNE 6 9 3 5 1018.2 1018.2 0.0
26/05:00pm 15.8 14.5 9.9 68 3.1 N 7 9 4 5 1018.4 1018.4 0.0
26/04:30pm 18.0 16.4 10.1 60 4.2 N 9 13 5 7 1018.4 1018.4 0.0
26/04:00pm 18.5 16.6 10.6 60 4.3 NNW 11 15 6 8 1018.6 1018.6 0.0
26/03:30pm 18.3 16.9 10.9 62 4.0 NW 9 13 5 7 1018.9 1018.9 0.0
26/03:00pm 19.2 17.4 11.0 59 4.5 NW 11 17 6 9 1018.9 1018.9 0.0
26/02:30pm 19.2 17.0 10.7 58 4.6 NNW 13 19 7 10 1019.2 1019.2 0.0
26/02:00pm 18.0 16.7 11.1 64 3.8 NW 9 13 5 7 1019.4 1019.4 0.0
26/01:30pm 17.4 16.2 11.7 69 3.1 NW 9 15 5 8 1019.7 1019.7 0.0
26/01:00pm 17.6 16.0 11.4 67 3.4 NNW 11 17 6 9 1020.2 1020.2 0.0
26/12:30pm 17.1 15.4 11.2 68 3.2 NNW 11 17 6 9 1020.7 1020.7 0.0
26/12:00pm 15.4 14.6 11.8 79 2.0 N 7 11 4 6 1021.2 1021.2 0.0
26/11:30am 13.8 13.2 12.4 91 0.8 N 7 9 4 5 1021.7 1021.7 0.0
26/11:00am 12.8 - - - - NNE 6 9 3 5 1022.3 1022.4 0.0
26/10:30am 11.6 - - - - NNE 6 7 3 4 1022.5 1022.6 0.0
26/10:00am 11.3 - - - - NNE 7 11 4 6 1022.7 1022.8 0.0
26/09:30am 10.6 - - - - NE 9 11 5 6 1022.8 1022.9 0.0
26/09:00am 10.4 - - - - NE 11 13 6 7 1022.8 1022.9 0.0
26/08:30am 10.0 - - - - NE 9 13 5 7 1022.9 1023.0 0.0
26/08:00am 9.5 - - - - NE 7 9 4 5 1022.8 1022.9 0.0
26/07:30am 9.8 - - - - ESE 6 7 3 4 1022.5 1022.6 0.0
26/07:00am 9.1 - - - - ESE 4 4 2 2 1022.3 1022.4 0.0
26/06:30am 8.3 - - - - S 6 9 3 5 1022.1 1022.1 0.0
26/06:00am 8.5 - - - - WSW 4 6 2 3 1021.8 1021.8 0.0
26/05:30am 7.8 - - - - CALM 0 4 0 2 1021.6 1021.6 0.0
26/05:00am 8.1 - - - - WNW 6 6 3 3 1021.4 1021.4 0.0
26/04:30am 8.5 - - - - WNW 2 6 1 3 1021.2 1021.2 0.0
26/04:00am 8.7 - - - - CALM 0 0 0 0 1021.0 1021.0 0.0
26/03:30am 9.4 - - - - CALM 0 0 0 0 1021.1 1021.1 0.0
26/03:00am 9.5 - - - - SW 4 6 2 3 1021.2 1021.2 0.0
26/02:30am 9.5 8.1 9.5 100 0.0 WSW 7 9 4 5 1021.2 1021.2 0.0
26/02:00am 9.3 7.2 8.1 92 0.6 WSW 9 9 5 5 1021.1 1021.1 0.0
26/01:30am 9.8 7.4 8.6 92 0.6 SW 11 13 6 7 1021.3 1021.3 0.0
26/01:00am 10.5 8.6 9.1 91 0.7 WSW 9 9 5 5 1021.3 1021.3 0.0
26/12:30am 10.9 9.4 9.3 90 0.8 WSW 7 9 4 5 1021.5 1021.5 0.0
26/12:00am 11.9 9.7 9.3 84 1.3 W 11 13 6 7 1021.5 1021.5 0.0
 
Date/Time
CST
Temp
°C
App
Temp
°C
Dew
Point
°C
Rel
Hum
%
Delta-T
°C
Wind Press
QNH
hPa
Press
MSL
hPa
Rain since
9am
mm
Dir  Spd
km/h
Gust
km/h
Spd
kts
Gust
kts
25/11:30pm 12.9 10.2 10.3 84 1.3 W 15 17 8 9 1021.6 1021.6 0.0
25/11:00pm 12.2 9.3 9.8 85 1.2 W 15 15 8 8 1021.6 1021.6 0.0
25/10:30pm 11.8 8.9 9.5 86 1.2 W 15 15 8 8 1021.6 1021.6 0.0
25/10:00pm 12.1 9.2 9.5 84 1.3 W 15 17 8 9 1021.6 1021.6 0.0
25/09:30pm 11.6 9.2 8.5 81 1.5 W 11 11 6 6 1021.5 1021.5 0.0
25/09:00pm 12.5 10.2 9.0 79 1.8 W 11 11 6 6 1021.6 1021.6 0.0
25/08:30pm 12.9 11.4 9.0 77 2.0 W 7 9 4 5 1021.5 1021.5 0.0
25/08:00pm 12.1 10.7 8.9 81 1.6 W 6 6 3 3 1021.4 1021.4 0.0

Other Formats:

Comma delimited format used in spreadsheet applications
http://www.bom.gov.au/fwo/IDS60801/IDS60801.94690.axf

JavaScript Object Notation format (JSON) in row-major order
http://www.bom.gov.au/fwo/IDS60801/IDS60801.94690.json